Ashwood, OR (97711)

1:56 AM PDT on July 31, 2016 (GMT -0700)
RAWS | | Change Station

Elev 4187 ft 44.60 °N, 120.68 °W | Updated 42 minutes ago

Clear
Clear
56.0 °F
Feels Like 56.0 °F
N
3.0
Wind Variable Wind from SE
Gusts 9.0 mph

Today
High -- | Low -- °F
--% Chance of Precip.
Yesterday
High -- | Low -- °F
Precip. -- in
Pressure 29.90 in
Visibility 10.0 miles
Clouds Clear
Dew Point 28.0 °F
Humidity 34%
Rainfall in
Snow Depth Not available.
5:48 AM 8:28 PM
Waning Crescent, 8% visible
METAR KRDM 310756Z AUTO 00000KT 10SM CLR 14/M01 A2998 RMK AO2 SLP124 T01391006 403390111
Pressure 29.90 in
Visibility 10.0 miles
Clouds Clear
Dew Point 28.0 °F
Humidity 34%
Rainfall in
Snow Depth Not available.
5:48 AM 8:28 PM
Waning Crescent, 8% visible
METAR KRDM 310756Z AUTO 00000KT 10SM CLR 14/M01 A2998 RMK AO2 SLP124 T01391006 403390111

10-Day Weather Forecast

Almanac

Astronomy

Jul. 31, 2016 Rise Set
Actual Time
Civil Twilight
Nautical Twilight
Astronomical Twilight
Moon
Length of Visible Light
Length of Day
Tomorrow will be .
, % of the Moon is Illuminated

Today's Extremes

State Highs State Lows

Community

WunderPhotos

Upload Photos

1,928,768 photos uploaded!

WunderBlog® & News

Nearby

Air Quality

  Air Quality AQ Index Pollutant
Not available.

Snow Depth

Station Depth Elevation

Earthquake Activity

City Distance Mag. Time & Date
Minimum magnitude displayed is 2.5.

Coastal Water Temperatures

Place Temperature

Stations

Nearby Weather Stations

Station Location Temp. Windchill Dew Point Humidity Wind Precip. Elev Updated Type
                   

Watches & Warnings

There are currently no watches in effect.